Time;durP1;ratioP1;P1;durP2;ratioP2;P2;SDS_P1;SDS_P2;PMS_P1;PMS_P2;Temp;Humidity;BMP_temperature;BMP_pressure;BME280_temperature;BME280_humidity;BME280_pressure;Samples;Min_cycle;Max_cycle;Signal;HPM_P1;HPM_P2
2023/05/16 00:01:48;;;;;;;20.30;7.50;;;9.00;99.90;;;;;;5001407;28;20196;-57
2023/05/16 00:04:14;;;;;;;9.50;6.63;;;8.90;99.90;;;;;;5008604;28;20211;-59
2023/05/16 00:06:40;;;;;;;5.70;4.67;;;8.90;99.90;;;;;;4996293;28;20180;-58
2023/05/16 00:09:05;;;;;;;7.60;5.10;;;8.90;99.90;;;;;;4995972;28;20964;-56
2023/05/16 00:11:31;;;;;;;7.30;5.07;;;8.80;99.90;;;;;;4997166;28;20204;-57
2023/05/16 00:13:57;;;;;;;7.10;5.50;;;8.80;99.90;;;;;;4999223;28;20177;-58
2023/05/16 00:16:24;;;;;;;10.10;5.00;;;8.80;99.90;;;;;;5003603;28;20181;-59
2023/05/16 00:18:52;;;;;;;13.47;5.60;;;8.80;99.90;;;;;;5000227;28;20422;-57
2023/05/16 00:21:17;;;;;;;7.43;5.50;;;8.80;99.90;;;;;;5004348;28;20795;-57
2023/05/16 00:23:43;;;;;;;10.07;5.43;;;8.80;99.90;;;;;;5001652;28;20877;-58
2023/05/16 00:26:09;;;;;;;9.90;5.70;;;8.90;99.90;;;;;;5004558;28;20599;-59
2023/05/16 00:28:35;;;;;;;9.40;5.07;;;8.90;99.90;;;;;;5003770;28;20276;-57
2023/05/16 00:31:00;;;;;;;11.57;6.23;;;8.90;99.90;;;;;;4999929;28;20857;-58
2023/05/16 00:33:26;;;;;;;10.07;6.80;;;9.00;99.90;;;;;;5003931;28;20208;-59
2023/05/16 00:35:52;;;;;;;15.47;6.57;;;9.00;99.90;;;;;;5006062;28;20221;-57
2023/05/16 00:38:18;;;;;;;27.17;6.07;;;9.00;99.90;;;;;;4998429;28;20185;-58
2023/05/16 00:40:45;;;;;;;39.73;6.40;;;9.00;99.90;;;;;;5000626;28;20543;-58
2023/05/16 00:43:11;;;;;;;23.67;6.10;;;9.00;99.90;;;;;;5007035;28;20510;-58
2023/05/16 00:45:36;;;;;;;7.87;5.33;;;9.00;99.90;;;;;;5006657;28;20490;-59
2023/05/16 00:48:02;;;;;;;12.37;5.67;;;8.90;99.90;;;;;;4998406;28;20721;-57
2023/05/16 00:50:28;;;;;;;16.90;6.80;;;8.90;99.90;;;;;;5003160;28;20664;-58
2023/05/16 00:52:54;;;;;;;37.63;7.90;;;8.90;99.90;;;;;;4996853;28;20505;-58
2023/05/16 00:55:20;;;;;;;15.60;6.50;;;8.90;99.90;;;;;;5006624;28;20768;-58
2023/05/16 00:57:45;;;;;;;14.87;6.43;;;8.90;99.90;;;;;;4999766;28;20443;-59
2023/05/16 01:00:14;;;;;;;15.83;6.57;;;8.90;99.90;;;;;;5003767;28;20227;-57
2023/05/16 01:02:39;;;;;;;13.67;6.27;;;8.90;99.90;;;;;;4997158;28;20292;-57
2023/05/16 01:05:07;;;;;;;18.77;7.40;;;8.90;99.90;;;;;;5004320;28;20507;-58
2023/05/16 01:07:34;;;;;;;8.20;5.97;;;9.00;99.90;;;;;;4997929;28;20268;-58
2023/05/16 01:10:00;;;;;;;17.80;6.93;;;9.00;99.90;;;;;;5005072;28;20435;-57
2023/05/16 01:12:33;;;;;;;7.10;5.00;;;9.00;99.90;;;;;;5019165;28;20463;-57
2023/05/16 01:15:22;;;;;;;8.07;4.97;;;9.00;99.90;;;;;;5002952;28;20458;-59
2023/05/16 01:18:00;;;;;;;7.90;4.50;;;9.00;99.90;;;;;;5003421;28;20435;-57
2023/05/16 01:20:54;;;;;;;3.90;3.60;;;9.00;99.90;;;;;;5005465;28;20470;-58
2023/05/16 01:23:38;;;;;;;6.53;3.80;;;8.90;99.90;;;;;;5003506;28;20478;-59
2023/05/16 01:26:24;;;;;;;4.30;3.63;;;8.90;99.90;;;;;;5006298;28;20458;-57
2023/05/16 01:28:51;;;;;;;4.37;3.60;;;8.90;99.90;;;;;;5001112;28;20542;-59
2023/05/16 01:31:17;;;;;;;5.70;3.90;;;8.90;99.90;;;;;;5004305;28;20514;-58
2023/05/16 01:33:43;;;;;;;4.60;3.97;;;8.90;99.90;;;;;;5003276;28;20438;-58
2023/05/16 01:36:23;;;;;;;5.10;4.17;;;8.90;99.90;;;;;;5005821;28;20407;-57
2023/05/16 01:39:16;;;;;;;7.57;4.40;;;8.90;99.90;;;;;;4992633;28;21072;-58
2023/05/16 01:41:45;;;;;;;5.83;4.50;;;8.90;99.90;;;;;;4999990;28;20599;-58
2023/05/16 01:44:35;;;;;;;7.83;5.20;;;8.90;99.90;;;;;;5004351;28;20511;-59
2023/05/16 01:47:08;;;;;;;12.63;6.83;;;8.90;99.90;;;;;;4994775;28;20438;-57
2023/05/16 01:49:35;;;;;;;9.17;6.23;;;8.90;99.90;;;;;;5006207;28;20434;-58
2023/05/16 01:52:10;;;;;;;11.60;7.07;;;9.00;99.90;;;;;;5000434;28;20922;-59
2023/05/16 01:54:38;;;;;;;18.40;6.73;;;8.90;99.90;;;;;;5004481;28;21159;-58
2023/05/16 01:57:07;;;;;;;17.57;7.30;;;9.00;99.90;;;;;;4998054;28;20427;-58
2023/05/16 01:59:33;;;;;;;10.80;6.70;;;8.90;99.90;;;;;;5002912;28;20438;-57
2023/05/16 02:01:59;;;;;;;11.50;7.60;;;9.00;99.90;;;;;;5007949;28;20502;-57
2023/05/16 02:04:25;;;;;;;9.63;6.70;;;9.00;99.90;;;;;;5006905;28;20955;-57
2023/05/16 02:06:51;;;;;;;12.73;7.37;;;9.00;99.90;;;;;;5008237;28;20172;-60
2023/05/16 02:09:16;;;;;;;9.80;7.10;;;9.00;99.90;;;;;;5007947;28;20177;-57
2023/05/16 02:11:42;;;;;;;13.30;6.73;;;9.00;99.90;;;;;;5002918;28;20450;-58
2023/05/16 02:14:08;;;;;;;11.93;6.93;;;9.00;99.90;;;;;;4997250;28;20177;-58
2023/05/16 02:16:34;;;;;;;9.73;6.70;;;9.00;99.90;;;;;;5006930;28;20237;-57
2023/05/16 02:19:00;;;;;;;13.37;7.70;;;9.00;99.90;;;;;;5007429;28;20935;-59
2023/05/16 02:21:26;;;;;;;11.37;6.57;;;9.00;99.90;;;;;;5004383;28;20508;-59
2023/05/16 02:23:52;;;;;;;10.23;7.00;;;9.00;99.90;;;;;;5003647;28;20191;-58
2023/05/16 02:26:17;;;;;;;9.97;6.57;;;9.00;99.90;;;;;;5008614;28;20188;-57
2023/05/16 02:28:43;;;;;;;11.90;7.40;;;9.00;99.90;;;;;;5008742;28;20522;-58
2023/05/16 02:31:09;;;;;;;9.60;6.60;;;9.00;99.90;;;;;;5002228;28;20176;-56
2023/05/16 02:33:34;;;;;;;13.13;7.13;;;9.00;99.90;;;;;;5006695;28;20251;-58
2023/05/16 02:36:00;;;;;;;10.50;7.40;;;8.90;99.90;;;;;;5008954;28;20172;-58
2023/05/16 02:38:26;;;;;;;11.57;7.00;;;8.90;99.90;;;;;;5006597;28;20215;-57
2023/05/16 02:40:51;;;;;;;11.40;6.70;;;9.00;99.90;;;;;;5009245;28;20231;-58
2023/05/16 02:43:17;;;;;;;11.27;7.80;;;9.00;99.90;;;;;;5009204;28;20589;-58
2023/05/16 02:45:43;;;;;;;11.60;7.77;;;9.00;99.90;;;;;;5008840;28;20177;-59
2023/05/16 02:48:09;;;;;;;10.40;7.20;;;9.00;99.90;;;;;;5001453;28;20188;-59
2023/05/16 02:50:35;;;;;;;11.17;7.90;;;9.00;99.90;;;;;;5009459;28;20176;-58
2023/05/16 02:53:01;;;;;;;23.87;6.90;;;8.90;99.90;;;;;;5007234;28;20211;-59
2023/05/16 02:55:27;;;;;;;12.53;7.70;;;8.90;99.90;;;;;;4999096;28;20177;-58
2023/05/16 02:57:53;;;;;;;14.47;8.77;;;8.90;99.90;;;;;;5005505;28;20470;-59
2023/05/16 03:00:19;;;;;;;12.97;8.33;;;9.00;99.90;;;;;;5009109;28;21012;-59
2023/05/16 03:02:45;;;;;;;13.40;7.30;;;9.00;99.90;;;;;;5007014;28;20234;-58
2023/05/16 03:05:11;;;;;;;17.20;8.07;;;8.90;99.90;;;;;;5004005;28;20427;-58
2023/05/16 03:07:37;;;;;;;12.03;7.70;;;9.00;99.90;;;;;;5002416;28;21175;-59
2023/05/16 03:10:03;;;;;;;14.03;8.23;;;9.00;99.90;;;;;;5005267;28;20435;-58
2023/05/16 03:12:29;;;;;;;8.43;6.70;;;9.00;99.90;;;;;;5001270;28;20983;-58
2023/05/16 03:14:55;;;;;;;13.33;8.13;;;9.00;99.90;;;;;;5006282;28;20427;-58
2023/05/16 03:17:20;;;;;;;14.63;6.90;;;9.00;99.90;;;;;;5004506;28;20255;-58
2023/05/16 03:19:46;;;;;;;12.60;8.50;;;9.00;99.90;;;;;;5007884;28;20250;-58
2023/05/16 03:22:12;;;;;;;11.80;7.77;;;9.00;99.90;;;;;;4995632;28;20336;-58
2023/05/16 03:24:37;;;;;;;15.50;8.10;;;9.00;99.90;;;;;;5007242;28;20198;-57
2023/05/16 03:27:04;;;;;;;16.90;9.27;;;9.10;99.90;;;;;;5006043;28;20200;-59
2023/05/16 03:29:30;;;;;;;18.97;9.30;;;9.10;99.90;;;;;;5007154;28;20239;-58
2023/05/16 03:31:56;;;;;;;15.43;8.87;;;9.10;99.90;;;;;;5006894;28;20423;-58
2023/05/16 03:34:21;;;;;;;17.20;9.50;;;9.10;99.90;;;;;;5003342;28;20196;-58
2023/05/16 03:36:48;;;;;;;14.00;8.53;;;9.10;99.90;;;;;;5008243;28;20407;-57
2023/05/16 03:39:15;;;;;;;15.93;9.63;;;9.10;99.90;;;;;;5005577;28;20286;-58
2023/05/16 03:41:40;;;;;;;17.33;9.70;;;9.10;99.90;;;;;;5007235;28;20514;-58
2023/05/16 03:44:06;;;;;;;13.87;9.27;;;9.10;99.90;;;;;;4999981;28;20505;-57
2023/05/16 03:46:32;;;;;;;22.70;9.37;;;9.10;99.90;;;;;;5007606;28;20664;-57
2023/05/16 03:48:58;;;;;;;15.70;9.80;;;9.10;99.90;;;;;;5004316;28;20175;-59
2023/05/16 03:51:23;;;;;;;17.03;10.63;;;9.10;99.90;;;;;;5008214;28;20180;-60
2023/05/16 03:53:49;;;;;;;18.73;10.93;;;9.10;99.90;;;;;;4997113;28;20315;-58
2023/05/16 03:56:15;;;;;;;16.97;9.27;;;9.10;99.90;;;;;;5001712;28;20204;-58
2023/05/16 03:58:41;;;;;;;16.70;10.73;;;9.10;99.90;;;;;;5006057;28;20226;-59
2023/05/16 04:01:06;;;;;;;13.93;8.70;;;9.10;99.90;;;;;;5004797;28;20196;-61
2023/05/16 04:03:32;;;;;;;16.10;10.40;;;9.10;99.90;;;;;;5001441;28;20192;-59
2023/05/16 04:05:58;;;;;;;14.80;9.63;;;9.10;99.90;;;;;;5004968;28;20299;-60
2023/05/16 04:08:24;;;;;;;12.23;8.53;;;9.10;99.90;;;;;;4999887;28;21321;-59
2023/05/16 04:10:50;;;;;;;14.70;9.90;;;9.10;99.90;;;;;;5004692;28;20496;-60
2023/05/16 04:13:16;;;;;;;15.43;10.67;;;9.10;99.90;;;;;;5000299;28;20824;-59
2023/05/16 04:15:41;;;;;;;26.10;12.40;;;9.20;99.90;;;;;;5006353;28;20322;-59
2023/05/16 04:18:08;;;;;;;25.00;12.73;;;9.20;99.90;;;;;;5001444;28;20746;-60
2023/05/16 04:20:34;;;;;;;19.10;12.40;;;9.30;99.90;;;;;;5006928;28;20223;-59
2023/05/16 04:23:00;;;;;;;23.40;14.30;;;9.30;99.90;;;;;;5000216;28;20427;-60
2023/05/16 04:25:25;;;;;;;25.27;15.03;;;9.40;99.90;;;;;;5000719;28;20439;-60
2023/05/16 04:27:52;;;;;;;32.37;17.30;;;9.40;99.90;;;;;;5006039;28;20181;-59
2023/05/16 04:30:18;;;;;;;31.40;17.27;;;9.40;99.90;;;;;;4995724;28;20177;-58
2023/05/16 04:32:43;;;;;;;31.90;19.23;;;9.50;99.90;;;;;;5002590;28;20983;-60
2023/05/16 04:35:09;;;;;;;32.73;19.40;;;9.50;99.90;;;;;;5002511;28;20232;-60
2023/05/16 04:37:36;;;;;;;41.00;20.50;;;9.50;99.90;;;;;;4993496;28;20229;-59
2023/05/16 04:40:01;;;;;;;38.80;21.93;;;9.50;99.90;;;;;;5002879;28;21024;-58
2023/05/16 04:42:27;;;;;;;34.97;20.70;;;9.60;99.90;;;;;;5004669;28;20482;-60
2023/05/16 04:44:53;;;;;;;38.57;21.00;;;9.60;99.90;;;;;;4999450;28;20177;-60
2023/05/16 04:47:18;;;;;;;38.70;22.90;;;9.60;99.90;;;;;;4991893;28;20173;-60
2023/05/16 04:49:44;;;;;;;38.70;21.70;;;9.70;99.90;;;;;;5002285;28;20344;-58
2023/05/16 04:52:10;;;;;;;39.70;21.03;;;9.70;99.90;;;;;;5002904;28;20254;-60
2023/05/16 04:54:37;;;;;;;40.90;22.23;;;9.70;99.90;;;;;;5004442;28;20176;-60
2023/05/16 04:57:03;;;;;;;36.87;21.33;;;9.80;99.90;;;;;;4999961;28;20590;-59
2023/05/16 04:59:28;;;;;;;43.87;23.60;;;9.80;99.90;;;;;;5003896;28;20412;-60
2023/05/16 05:01:54;;;;;;;49.10;23.97;;;9.80;99.90;;;;;;5004054;28;20196;-60
2023/05/16 05:04:20;;;;;;;51.60;25.63;;;9.80;99.90;;;;;;5000324;28;20645;-60
2023/05/16 05:06:45;;;;;;;52.47;25.47;;;9.80;99.90;;;;;;4986061;28;20204;-59
2023/05/16 05:09:11;;;;;;;46.43;24.90;;;9.90;99.90;;;;;;4996875;28;20192;-60
2023/05/16 05:11:37;;;;;;;50.33;27.13;;;9.90;99.90;;;;;;4990304;28;20207;-61
2023/05/16 05:14:02;;;;;;;60.00;27.00;;;9.90;99.90;;;;;;4992245;28;21599;-59
2023/05/16 05:16:28;;;;;;;54.17;26.13;;;9.90;99.90;;;;;;4992089;28;20188;-59
2023/05/16 05:18:54;;;;;;;55.47;27.20;;;10.00;99.90;;;;;;4982804;28;20218;-60
2023/05/16 05:21:20;;;;;;;55.63;28.37;;;10.00;99.90;;;;;;5003214;28;20295;-59
2023/05/16 05:23:48;;;;;;;56.07;27.70;;;10.00;99.90;;;;;;4998943;28;20184;-61
2023/05/16 05:26:14;;;;;;;58.57;28.07;;;10.00;99.90;;;;;;5000856;28;20471;-61
2023/05/16 05:28:40;;;;;;;58.47;30.20;;;10.00;99.90;;;;;;4995936;28;20454;-59
2023/05/16 05:31:06;;;;;;;53.70;27.97;;;10.10;99.90;;;;;;4998834;28;20181;-58
2023/05/16 05:33:32;;;;;;;64.97;30.27;;;10.10;99.90;;;;;;4995911;28;20471;-59
2023/05/16 05:35:58;;;;;;;60.67;30.33;;;10.20;99.90;;;;;;5000932;28;20439;-60
2023/05/16 05:38:24;;;;;;;55.00;27.90;;;10.20;99.90;;;;;;5000668;28;20200;-59
2023/05/16 05:40:50;;;;;;;60.27;29.20;;;10.20;99.90;;;;;;5002429;28;20239;-60
2023/05/16 05:43:15;;;;;;;63.60;29.80;;;10.20;99.90;;;;;;4999693;28;20216;-60
2023/05/16 05:45:42;;;;;;;58.10;28.67;;;10.10;99.90;;;;;;5004800;28;20230;-60
2023/05/16 05:48:08;;;;;;;64.20;28.40;;;10.20;99.90;;;;;;5003073;28;20172;-60
2023/05/16 05:50:33;;;;;;;63.60;30.63;;;10.20;99.90;;;;;;5004105;28;20431;-60
2023/05/16 05:52:59;;;;;;;64.60;31.30;;;10.20;99.90;;;;;;4996314;28;20236;-59
2023/05/16 05:55:25;;;;;;;67.30;30.30;;;10.20;99.90;;;;;;5005479;28;20583;-59
2023/05/16 05:57:51;;;;;;;59.27;30.37;;;10.20;99.90;;;;;;5002078;28;20172;-58
2023/05/16 06:00:16;;;;;;;57.63;27.60;;;10.20;99.90;;;;;;5002803;28;21016;-59
2023/05/16 06:02:42;;;;;;;61.27;28.90;;;10.20;99.90;;;;;;5003506;28;20207;-60
2023/05/16 06:05:08;;;;;;;61.67;29.23;;;10.20;99.90;;;;;;5007673;28;20299;-59
2023/05/16 06:07:33;;;;;;;55.10;27.47;;;10.20;99.90;;;;;;4998880;28;20259;-53
2023/05/16 06:10:03;;;;;;;57.30;27.47;;;10.20;99.90;;;;;;4995209;28;20656;-59
2023/05/16 06:12:28;;;;;;;58.10;28.97;;;10.20;99.90;;;;;;4994695;28;20188;-61
2023/05/16 06:14:55;;;;;;;54.43;29.50;;;10.10;99.90;;;;;;5008487;28;20466;-60
2023/05/16 06:17:20;;;;;;;60.17;27.70;;;10.10;99.90;;;;;;5005613;28;20180;-60
2023/05/16 06:19:46;;;;;;;55.60;27.57;;;10.20;99.90;;;;;;5000727;28;20524;-59
2023/05/16 06:22:11;;;;;;;62.40;27.73;;;10.20;99.90;;;;;;5004252;28;20273;-60
2023/05/16 06:24:37;;;;;;;55.87;27.20;;;10.20;99.90;;;;;;5002026;28;20227;-59
2023/05/16 06:27:03;;;;;;;57.43;28.13;;;10.20;99.90;;;;;;5000929;28;20549;-60
2023/05/16 06:29:28;;;;;;;60.50;28.07;;;10.30;99.90;;;;;;5004441;28;20226;-59
2023/05/16 06:31:54;;;;;;;56.90;28.50;;;10.30;99.90;;;;;;5000793;28;20234;-59
2023/05/16 06:34:26;;;;;;;54.60;28.27;;;10.30;99.90;;;;;;5008718;28;20179;-61
2023/05/16 06:36:51;;;;;;;62.47;28.93;;;10.30;99.90;;;;;;5005857;28;20192;-60
2023/05/16 06:39:17;;;;;;;66.93;28.73;;;10.30;99.90;;;;;;5009570;28;20428;-58
2023/05/16 06:41:43;;;;;;;65.00;30.50;;;10.40;99.90;;;;;;5002852;28;20852;-58
2023/05/16 06:44:08;;;;;;;78.60;31.40;;;10.40;99.90;;;;;;5000740;28;20183;-59
2023/05/16 06:46:34;;;;;;;56.80;29.37;;;10.40;99.90;;;;;;5004487;28;20571;-58
2023/05/16 06:49:00;;;;;;;56.53;28.37;;;10.50;99.90;;;;;;5005237;28;20177;-59
2023/05/16 06:51:25;;;;;;;54.70;26.63;;;10.50;99.90;;;;;;5007323;28;20451;-59
2023/05/16 06:53:51;;;;;;;49.17;25.93;;;10.50;99.90;;;;;;5002594;28;20181;-59
2023/05/16 06:56:17;;;;;;;59.40;27.03;;;10.50;99.90;;;;;;5007568;28;20263;-59
2023/05/16 06:58:43;;;;;;;49.70;25.80;;;10.50;99.90;;;;;;5003684;28;20173;-60
2023/05/16 07:01:08;;;;;;;49.00;26.00;;;10.60;99.90;;;;;;5000718;28;20211;-58
2023/05/16 07:03:34;;;;;;;51.67;25.57;;;10.60;99.90;;;;;;5006279;28;20596;-58
2023/05/16 07:05:59;;;;;;;46.40;24.10;;;10.70;99.90;;;;;;5006956;28;20280;-58
2023/05/16 07:08:25;;;;;;;43.67;23.83;;;10.70;99.90;;;;;;5005859;28;20184;-59
2023/05/16 07:10:51;;;;;;;54.93;25.57;;;10.70;99.90;;;;;;5003841;28;20180;-59
2023/05/16 07:13:16;;;;;;;42.20;23.30;;;10.80;99.90;;;;;;5007157;28;20592;-58
2023/05/16 07:15:42;;;;;;;42.50;23.47;;;10.80;99.90;;;;;;5005143;28;20182;-59
2023/05/16 07:18:07;;;;;;;49.10;24.40;;;10.80;99.90;;;;;;5000336;28;20169;-59
2023/05/16 07:20:33;;;;;;;42.90;23.60;;;10.90;99.90;;;;;;5008471;28;20689;-60
2023/05/16 07:22:58;;;;;;;43.30;23.67;;;10.90;99.90;;;;;;5004667;28;20271;-59
2023/05/16 07:25:25;;;;;;;42.43;23.57;;;10.90;99.90;;;;;;5004427;28;20176;-59
2023/05/16 07:27:50;;;;;;;42.20;24.93;;;10.90;99.90;;;;;;5006782;28;20283;-60
2023/05/16 07:30:16;;;;;;;44.33;24.93;;;11.00;99.90;;;;;;5005716;28;20431;-59
2023/05/16 07:32:42;;;;;;;46.90;23.50;;;11.10;99.90;;;;;;5004560;28;20302;-59
2023/05/16 07:35:08;;;;;;;41.10;23.43;;;11.20;99.90;;;;;;5002402;28;20176;-58
2023/05/16 07:37:35;;;;;;;49.73;24.30;;;11.20;99.90;;;;;;4999291;28;20256;-59
2023/05/16 07:40:02;;;;;;;49.83;25.70;;;11.30;99.90;;;;;;5006598;28;20454;-59
2023/05/16 07:42:28;;;;;;;47.50;24.27;;;11.40;99.90;;;;;;5007804;28;20500;-60
2023/05/16 07:44:53;;;;;;;42.10;24.73;;;11.50;99.90;;;;;;5005665;28;20826;-60
2023/05/16 07:47:19;;;;;;;38.43;21.80;;;11.50;99.90;;;;;;5007608;28;20183;-59
2023/05/16 07:49:45;;;;;;;40.43;23.17;;;11.60;99.90;;;;;;5002312;28;20263;-60
2023/05/16 07:52:10;;;;;;;39.80;23.33;;;11.60;99.90;;;;;;5003245;28;20270;-60
2023/05/16 07:54:37;;;;;;;47.50;22.90;;;11.70;99.90;;;;;;5007734;28;20168;-58
2023/05/16 07:57:03;;;;;;;38.37;23.00;;;11.70;99.90;;;;;;5007570;28;20204;-58
2023/05/16 07:59:28;;;;;;;41.83;22.90;;;11.80;99.90;;;;;;5004997;28;20526;-60
2023/05/16 08:01:55;;;;;;;32.87;20.90;;;11.80;99.90;;;;;;5002249;28;20463;-59
2023/05/16 08:04:20;;;;;;;38.43;21.13;;;11.80;99.90;;;;;;5004452;28;20180;-62
2023/05/16 08:06:46;;;;;;;38.20;21.97;;;11.80;99.90;;;;;;5006674;28;20427;-58
2023/05/16 08:09:12;;;;;;;36.47;21.17;;;11.80;99.90;;;;;;5002267;28;20176;-59
2023/05/16 08:11:38;;;;;;;36.60;20.53;;;11.80;99.90;;;;;;5005254;28;20196;-59
2023/05/16 08:14:04;;;;;;;35.70;20.07;;;11.90;99.90;;;;;;5005607;28;20536;-60
2023/05/16 08:16:30;;;;;;;34.70;20.80;;;11.90;99.90;;;;;;5007388;28;20427;-60
2023/05/16 08:18:56;;;;;;;37.50;20.30;;;11.80;99.90;;;;;;5003618;28;20276;-60
2023/05/16 08:21:21;;;;;;;33.97;20.80;;;11.90;99.90;;;;;;5004580;28;20363;-59
2023/05/16 08:23:47;;;;;;;38.40;22.30;;;11.90;99.90;;;;;;5006969;28;20175;-58
2023/05/16 08:26:12;;;;;;;37.07;21.30;;;11.80;99.90;;;;;;5009386;28;20580;-59
2023/05/16 08:28:38;;;;;;;38.00;21.90;;;11.80;99.90;;;;;;5003753;28;20264;-60
2023/05/16 08:31:04;;;;;;;50.13;21.63;;;11.80;99.90;;;;;;5007811;28;20203;-60
2023/05/16 08:33:29;;;;;;;35.07;21.53;;;11.70;99.90;;;;;;5005280;28;20876;-60
2023/05/16 08:35:55;;;;;;;40.70;21.50;;;11.60;99.90;;;;;;5000778;28;20185;-57
2023/05/16 08:38:20;;;;;;;35.27;20.50;;;11.60;99.90;;;;;;5003754;28;20181;-59
2023/05/16 08:40:46;;;;;;;33.17;19.37;;;11.60;99.90;;;;;;5004715;28;20196;-59
2023/05/16 08:43:12;;;;;;;37.87;19.93;;;11.50;99.90;;;;;;5007528;28;20842;-59
2023/05/16 08:45:40;;;;;;;36.33;20.90;;;11.40;99.90;;;;;;4994021;28;20626;-59
2023/05/16 08:48:06;;;;;;;30.77;18.27;;;11.40;99.90;;;;;;5007206;28;20913;-58
2023/05/16 08:50:33;;;;;;;36.17;19.83;;;11.40;99.90;;;;;;5003989;28;20784;-58
2023/05/16 08:53:06;;;;;;;36.73;20.50;;;11.40;99.90;;;;;;4999480;28;20569;-59
2023/05/16 08:55:32;;;;;;;36.57;20.30;;;11.40;99.90;;;;;;4994983;28;20461;-58
2023/05/16 08:57:59;;;;;;;32.50;19.13;;;11.30;99.90;;;;;;5004261;28;20425;-60
2023/05/16 09:00:26;;;;;;;33.90;20.00;;;11.30;99.90;;;;;;4999351;28;20467;-57
2023/05/16 09:02:52;;;;;;;35.07;19.23;;;11.30;99.90;;;;;;5001014;28;20459;-59
2023/05/16 09:05:17;;;;;;;33.47;19.80;;;11.30;99.90;;;;;;5001799;28;20564;-58
2023/05/16 09:07:44;;;;;;;30.03;19.50;;;11.30;99.90;;;;;;5002086;28;20609;-58
2023/05/16 09:10:11;;;;;;;34.63;19.10;;;11.30;99.90;;;;;;4993571;28;20185;-60
2023/05/16 09:12:39;;;;;;;35.67;19.63;;;11.30;99.90;;;;;;5009359;28;20574;-59
2023/05/16 09:15:06;;;;;;;29.00;17.60;;;11.40;99.90;;;;;;5001075;28;20435;-60
2023/05/16 09:17:41;;;;;;;29.20;16.87;;;11.40;99.90;;;;;;5000522;28;20442;-58
2023/05/16 09:20:15;;;;;;;30.73;17.60;;;11.40;99.90;;;;;;5004848;28;20961;-58
2023/05/16 09:22:53;;;;;;;26.83;15.43;;;11.40;99.90;;;;;;5002454;28;21017;-59
2023/05/16 09:25:20;;;;;;;27.57;15.40;;;11.40;99.90;;;;;;5003114;28;20427;-59
2023/05/16 09:27:47;;;;;;;32.40;16.73;;;11.40;99.90;;;;;;5004895;28;20412;-59
2023/05/16 09:30:17;;;;;;;32.37;17.50;;;11.30;99.90;;;;;;5027007;28;20430;-59
2023/05/16 09:32:44;;;;;;;31.03;18.10;;;11.20;99.90;;;;;;5007510;28;20751;-58
2023/05/16 09:35:15;;;;;;;38.87;21.27;;;11.20;99.90;;;;;;5001969;28;20533;-59
2023/05/16 09:37:48;;;;;;;40.53;20.37;;;11.10;99.90;;;;;;4998940;28;20443;-57
2023/05/16 09:40:15;;;;;;;47.67;22.07;;;11.10;99.90;;;;;;5002210;28;20937;-58
2023/05/16 09:42:42;;;;;;;38.33;22.33;;;11.00;99.90;;;;;;4998778;28;20958;-59
2023/05/16 09:45:12;;;;;;;37.90;20.90;;;10.90;99.90;;;;;;5001601;28;20565;-59
2023/05/16 09:47:45;;;;;;;37.27;21.07;;;10.90;99.90;;;;;;4997254;28;20443;-58
2023/05/16 09:50:14;;;;;;;34.77;19.13;;;10.90;99.90;;;;;;5007110;28;20451;-58
2023/05/16 09:52:39;;;;;;;36.23;19.43;;;10.90;99.90;;;;;;4998546;28;21035;-58
2023/05/16 09:55:09;;;;;;;32.77;17.63;;;10.90;99.90;;;;;;5000748;28;20458;-58
2023/05/16 09:57:39;;;;;;;24.57;14.60;;;10.90;99.90;;;;;;5002193;28;20228;-56
2023/05/16 10:00:10;;;;;;;21.70;13.73;;;10.90;99.90;;;;;;4989695;28;20486;-60
2023/05/16 10:02:38;;;;;;;17.40;10.90;;;10.90;99.90;;;;;;4994901;28;20459;-57
2023/05/16 10:05:04;;;;;;;19.40;12.03;;;10.90;99.90;;;;;;5001075;28;20833;-58
2023/05/16 10:07:32;;;;;;;20.03;12.10;;;10.90;99.90;;;;;;5001173;28;20434;-58
2023/05/16 10:10:04;;;;;;;18.10;10.67;;;10.90;99.90;;;;;;4998110;28;20497;-59
2023/05/16 10:12:31;;;;;;;17.30;11.27;;;10.90;99.90;;;;;;5003408;28;20454;-58
2023/05/16 10:15:02;;;;;;;17.40;10.00;;;10.90;99.90;;;;;;4999779;28;20581;-57
2023/05/16 10:17:31;;;;;;;16.70;11.00;;;10.80;99.90;;;;;;5001083;28;21196;-57
2023/05/16 10:20:00;;;;;;;24.37;11.07;;;10.90;99.90;;;;;;5001364;28;20436;-57
2023/05/16 10:22:27;;;;;;;19.03;11.07;;;10.90;99.90;;;;;;4999287;28;20459;-57
2023/05/16 10:25:23;;;;;;;19.03;11.03;;;10.90;99.90;;;;;;5000994;28;20432;-59
2023/05/16 10:27:50;;;;;;;17.90;11.50;;;10.90;99.90;;;;;;4999908;28;20435;-59
2023/05/16 10:30:16;;;;;;;17.00;11.23;;;11.00;99.90;;;;;;4991038;28;20436;-59
2023/05/16 10:32:43;;;;;;;18.23;11.10;;;11.00;99.90;;;;;;4998080;28;20479;-58
2023/05/16 10:35:09;;;;;;;19.33;10.87;;;11.00;99.90;;;;;;4999887;28;20799;-59
2023/05/16 10:37:35;;;;;;;14.10;9.57;;;11.00;99.90;;;;;;5000039;28;20439;-59
2023/05/16 10:40:04;;;;;;;11.93;7.00;;;11.00;99.90;;;;;;5001287;28;20471;-57
2023/05/16 10:42:32;;;;;;;14.07;8.73;;;11.00;99.90;;;;;;5001625;28;20456;-58
2023/05/16 10:45:18;;;;;;;14.67;9.57;;;10.90;99.90;;;;;;4998870;28;20515;-59
2023/05/16 10:47:58;;;;;;;12.73;9.60;;;10.90;99.90;;;;;;4999710;28;20428;-59
2023/05/16 10:50:42;;;;;;;13.03;9.47;;;10.80;99.90;;;;;;5003170;28;20813;-57
2023/05/16 10:53:10;;;;;;;16.07;10.40;;;10.80;99.90;;;;;;5003803;28;20746;-59
2023/05/16 10:55:38;;;;;;;15.10;11.13;;;10.90;99.90;;;;;;5004077;28;21027;-59
2023/05/16 10:58:04;;;;;;;20.73;12.77;;;10.90;99.90;;;;;;5000740;28;21145;-60
2023/05/16 11:00:29;;;;;;;25.17;13.23;;;10.90;99.90;;;;;;5001214;28;20470;-60
2023/05/16 11:03:05;;;;;;;20.10;12.90;;;10.90;99.90;;;;;;5001784;28;20232;-60
2023/05/16 11:05:30;;;;;;;20.27;12.93;;;10.90;99.90;;;;;;4997419;28;20191;-58
2023/05/16 11:08:04;;;;;;;17.23;11.77;;;11.00;99.90;;;;;;4998262;28;20435;-59
2023/05/16 11:10:30;;;;;;;22.37;13.30;;;11.00;99.90;;;;;;4998416;28;20191;-60
2023/05/16 11:13:02;;;;;;;21.73;13.43;;;11.10;99.90;;;;;;4995757;28;20466;-59
2023/05/16 11:15:31;;;;;;;24.37;15.13;;;11.30;99.90;;;;;;5001937;28;20754;-59
2023/05/16 11:18:14;;;;;;;25.63;13.90;;;11.50;99.90;;;;;;4998930;28;20465;-57
2023/05/16 11:20:40;;;;;;;19.27;13.03;;;11.60;99.90;;;;;;5001733;28;20482;-60
2023/05/16 11:23:18;;;;;;;20.60;13.00;;;11.80;99.90;;;;;;5001413;28;20458;-59
2023/05/16 11:25:45;;;;;;;22.63;12.80;;;11.80;99.90;;;;;;4998661;28;20173;-59
2023/05/16 11:28:15;;;;;;;20.67;12.93;;;11.90;99.90;;;;;;4996033;28;21001;-59
2023/05/16 11:30:50;;;;;;;21.33;13.00;;;11.90;99.90;;;;;;5000459;28;20439;-59
2023/05/16 11:33:16;;;;;;;26.20;13.97;;;11.90;99.90;;;;;;5000929;28;20512;-59
2023/05/16 11:35:42;;;;;;;19.90;13.00;;;11.90;99.90;;;;;;4996165;28;20438;-59
2023/05/16 11:38:13;;;;;;;24.37;13.57;;;11.80;99.90;;;;;;4997200;28;20444;-59
2023/05/16 11:40:43;;;;;;;20.40;13.30;;;11.90;99.90;;;;;;4997982;28;20893;-60
2023/05/16 11:43:08;;;;;;;23.63;14.03;;;11.90;99.90;;;;;;5000040;28;20473;-60
2023/05/16 11:45:34;;;;;;;23.97;14.30;;;12.00;99.90;;;;;;5000979;28;20833;-58
2023/05/16 11:48:03;;;;;;;20.77;14.10;;;12.10;99.90;;;;;;4999390;28;20173;-59
2023/05/16 11:50:32;;;;;;;29.50;15.23;;;12.10;99.90;;;;;;4999857;28;20236;-57
2023/05/16 11:52:58;;;;;;;21.53;13.83;;;12.20;99.90;;;;;;5004508;28;20473;-57
2023/05/16 11:55:26;;;;;;;21.50;14.67;;;12.20;99.90;;;;;;4999167;28;20447;-57
2023/05/16 11:57:53;;;;;;;21.13;13.17;;;12.10;99.90;;;;;;5001838;28;20195;-57
2023/05/16 12:00:23;;;;;;;30.40;15.60;;;12.10;99.90;;;;;;4996238;28;20963;-58
2023/05/16 12:02:49;;;;;;;24.97;15.83;;;12.20;99.90;;;;;;5001968;28;21116;-58
2023/05/16 12:05:16;;;;;;;22.50;14.73;;;12.20;99.90;;;;;;4997286;28;20474;-57
2023/05/16 12:07:43;;;;;;;29.53;16.03;;;12.40;99.90;;;;;;5001274;28;20433;-56
2023/05/16 12:10:10;;;;;;;22.13;15.33;;;12.50;99.90;;;;;;5003623;28;20446;-57
2023/05/16 12:12:39;;;;;;;26.07;15.37;;;12.60;99.90;;;;;;4999779;28;20459;-58
2023/05/16 12:15:07;;;;;;;27.00;16.03;;;12.60;99.90;;;;;;5000260;28;20436;-56
2023/05/16 12:17:37;;;;;;;33.10;18.40;;;12.60;99.90;;;;;;4999626;28;20478;-56
2023/05/16 12:20:13;;;;;;;27.37;16.03;;;12.50;99.90;;;;;;4999814;28;20459;-57
2023/05/16 12:22:40;;;;;;;26.30;16.27;;;12.30;99.90;;;;;;4998204;28;20454;-59
2023/05/16 12:25:30;;;;;;;26.37;17.03;;;12.20;99.90;;;;;;4995020;28;20957;-56
2023/05/16 12:28:01;;;;;;;26.30;15.07;;;12.10;99.90;;;;;;4998248;28;20433;-58
2023/05/16 12:30:29;;;;;;;30.67;15.53;;;12.00;99.90;;;;;;4999886;28;20493;-57
2023/05/16 12:32:58;;;;;;;27.50;15.57;;;12.00;99.90;;;;;;4992838;28;20489;-59
2023/05/16 12:35:24;;;;;;;21.00;13.40;;;12.00;99.90;;;;;;4996435;28;20531;-60
2023/05/16 12:37:51;;;;;;;21.83;14.60;;;11.90;99.90;;;;;;4996691;28;20446;-56